createdAt,value
2023-01-12T00:02:09.175Z,99228.28
2023-01-12T00:04:54.240Z,99224.00
2023-01-12T00:07:39.661Z,99231.03
2023-01-12T00:10:25.028Z,99244.22
2023-01-12T00:13:10.454Z,99252.16
2023-01-12T00:16:19.171Z,99253.13
2023-01-12T00:19:13.351Z,99270.66
2023-01-12T00:22:11.915Z,99272.28
2023-01-12T00:24:57.300Z,99251.31
2023-01-12T00:27:42.818Z,99253.88
2023-01-12T00:30:28.197Z,99257.13
2023-01-12T00:33:14.330Z,99244.91
2023-01-12T00:36:02.958Z,99258.69
2023-01-12T00:38:48.502Z,99271.97
2023-01-12T00:41:52.599Z,99283.72
2023-01-12T00:44:56.790Z,99304.88
2023-01-12T00:47:43.279Z,99308.50
2023-01-12T00:50:28.721Z,99306.84
2023-01-12T00:53:14.374Z,99306.03
2023-01-12T00:56:04.256Z,99323.31
2023-01-12T00:58:49.616Z,99324.09
2023-01-12T01:01:35.376Z,99321.41
2023-01-12T01:04:21.044Z,99317.88
2023-01-12T01:07:06.749Z,99326.59
2023-01-12T01:09:52.680Z,99337.19
2023-01-12T01:12:37.804Z,99339.13
2023-01-12T01:15:23.191Z,99349.78
2023-01-12T01:18:08.518Z,99354.28
2023-01-12T01:20:54.347Z,99345.69
2023-01-12T01:23:40.970Z,99351.84
2023-01-12T01:26:26.611Z,99352.69
2023-01-12T01:29:11.949Z,99361.31
2023-01-12T01:31:57.415Z,99362.22
2023-01-12T01:34:44.017Z,99360.47
2023-01-12T01:37:29.391Z,99363.91
2023-01-12T01:40:14.662Z,99364.69
2023-01-12T01:43:00.446Z,99362.88
2023-01-12T01:45:50.989Z,99366.31
2023-01-12T01:48:38.855Z,99378.53
2023-01-12T01:51:24.395Z,99380.28
2023-01-12T01:54:09.880Z,99379.59
2023-01-12T01:56:57.511Z,99363.22
2023-01-12T01:59:50.344Z,99388.44
2023-01-12T02:02:37.180Z,99390.25
2023-01-12T02:05:26.953Z,99387.59
2023-01-12T02:08:49.679Z,99394.53
2023-01-12T02:11:53.793Z,99379.75
2023-01-12T02:14:59.659Z,99374.50
2023-01-12T02:18:24.036Z,99384.00
2023-01-12T02:21:33.673Z,99384.75
2023-01-12T02:24:46.641Z,99375.28
2023-01-12T02:27:38.403Z,99381.41
2023-01-12T02:31:00.878Z,99376.31
2023-01-12T02:34:12.691Z,99367.59
2023-01-12T02:37:18.906Z,99364.94
2023-01-12T02:40:25.877Z,99371.06
2023-01-12T02:43:11.511Z,99369.34
2023-01-12T02:46:24.097Z,99363.28
2023-01-12T02:49:16.751Z,99356.22
2023-01-12T02:52:10.074Z,99367.50
2023-01-12T02:54:57.592Z,99362.38
2023-01-12T02:57:43.446Z,99371.94
2023-01-12T03:00:29.920Z,99363.28
2023-01-12T03:03:17.318Z,99366.69
2023-01-12T03:06:05.231Z,99366.72
2023-01-12T03:08:52.445Z,99365.06
2023-01-12T03:11:40.936Z,99372.03
2023-01-12T03:14:27.720Z,99373.69
2023-01-12T03:17:40.221Z,99374.69
2023-01-12T03:20:30.985Z,99375.78
2023-01-12T03:23:44.666Z,99381.00
2023-01-12T03:26:33.091Z,99386.19
2023-01-12T03:29:34.751Z,99395.75
2023-01-12T03:32:21.964Z,99393.06
2023-01-12T03:35:08.971Z,99399.09
2023-01-12T03:38:05.082Z,99407.78
2023-01-12T03:41:15.874Z,99392.34
2023-01-12T03:44:05.697Z,99389.91
2023-01-12T03:46:59.351Z,99406.34
2023-01-12T03:49:50.962Z,99407.88
2023-01-12T03:52:40.035Z,99390.44
2023-01-12T03:55:30.103Z,99382.69
2023-01-12T03:58:16.991Z,99383.66
2023-01-12T04:01:04.255Z,99386.41
2023-01-12T04:03:49.955Z,99390.91
2023-01-12T04:06:35.208Z,99395.31
2023-01-12T04:09:22.974Z,99397.03
2023-01-12T04:12:13.251Z,99390.97
2023-01-12T04:14:59.156Z,99388.28
2023-01-12T04:17:44.637Z,99393.56
2023-01-12T04:20:30.047Z,99396.94
2023-01-12T04:23:15.350Z,99383.00
2023-01-12T04:26:00.781Z,99373.47
2023-01-12T04:28:46.002Z,99374.53
2023-01-12T04:31:31.345Z,99370.38
2023-01-12T04:34:16.768Z,99360.88
2023-01-12T04:37:02.872Z,99367.00
2023-01-12T04:39:48.488Z,99364.41
2023-01-12T04:42:52.465Z,99366.13
2023-01-12T04:45:40.401Z,99376.50
2023-01-12T04:48:25.999Z,99363.47
2023-01-12T04:51:12.127Z,99350.50
2023-01-12T04:53:57.474Z,99350.50
2023-01-12T04:56:42.899Z,99346.16
2023-01-12T04:59:29.396Z,99353.22
2023-01-12T05:02:15.076Z,99354.97
2023-01-12T05:05:00.402Z,99347.16
2023-01-12T05:08:04.114Z,99355.91
2023-01-12T05:10:57.364Z,99344.56
2023-01-12T05:13:42.928Z,99337.69
2023-01-12T05:16:28.384Z,99336.66
2023-01-12T05:19:13.738Z,99319.28
2023-01-12T05:21:59.435Z,99322.69
2023-01-12T05:24:44.994Z,99310.59
2023-01-12T05:27:30.507Z,99300.06
2023-01-12T05:30:16.394Z,99285.28
2023-01-12T05:33:01.841Z,99275.72
2023-01-12T05:35:47.567Z,99271.50
2023-01-12T05:38:33.418Z,99279.38
2023-01-12T05:41:19.078Z,99269.84
2023-01-12T05:44:04.588Z,99263.75
2023-01-12T05:46:50.444Z,99254.19
2023-01-12T05:49:36.134Z,99262.03
2023-01-12T05:52:21.360Z,99264.78
2023-01-12T05:55:07.272Z,99247.31
2023-01-12T05:57:53.032Z,99249.78
2023-01-12T06:00:38.268Z,99233.16
2023-01-12T06:03:23.885Z,99224.28
2023-01-12T06:06:09.343Z,99225.03
2023-01-12T06:08:55.080Z,99225.94
2023-01-12T06:11:59.248Z,99224.25
2023-01-12T06:14:44.847Z,99241.69
2023-01-12T06:17:31.006Z,99237.97
2023-01-12T06:20:17.479Z,99231.81
2023-01-12T06:23:05.179Z,99231.06
2023-01-12T06:25:50.790Z,99225.97
2023-01-12T06:28:37.344Z,99225.16
2023-01-12T06:31:22.979Z,99220.66
2023-01-12T06:34:08.703Z,99206.63
2023-01-12T06:36:54.036Z,99199.78
2023-01-12T06:39:39.284Z,99190.28
2023-01-12T06:42:30.500Z,99190.38
2023-01-12T06:45:16.300Z,99193.06
2023-01-12T06:48:01.986Z,99180.81
2023-01-12T06:50:48.138Z,99189.41
2023-01-12T06:53:33.349Z,99196.34
2023-01-12T06:56:18.796Z,99185.91
2023-01-12T06:59:04.057Z,99172.84
2023-01-12T07:01:49.532Z,99164.19
2023-01-12T07:04:35.265Z,99146.72
2023-01-12T07:07:20.532Z,99158.72
2023-01-12T07:10:06.741Z,99148.19
2023-01-12T07:12:52.428Z,99155.78
2023-01-12T07:15:38.145Z,99158.25
2023-01-12T07:18:23.789Z,99133.06
2023-01-12T07:21:10.693Z,99136.53
2023-01-12T07:23:55.910Z,99133.97
2023-01-12T07:26:41.301Z,99134.91
2023-01-12T07:29:26.653Z,99126.34
2023-01-12T07:32:12.038Z,99116.69
2023-01-12T07:34:57.719Z,99134.81
2023-01-12T07:37:51.083Z,99135.59
2023-01-12T07:40:37.134Z,99128.47
2023-01-12T07:43:23.414Z,99125.03
2023-01-12T07:46:09.052Z,99127.91
2023-01-12T07:48:54.380Z,99133.25
2023-01-12T07:51:39.832Z,99119.28
2023-01-12T07:54:25.472Z,99113.19
2023-01-12T07:57:11.360Z,99113.41
2023-01-12T07:59:56.625Z,99104.75
2023-01-12T08:02:42.001Z,99083.69
2023-01-12T08:05:27.389Z,99084.53
2023-01-12T08:08:12.572Z,99077.41
2023-01-12T08:11:09.311Z,99077.28
2023-01-12T08:13:57.030Z,99081.72
2023-01-12T08:16:46.466Z,99080.22
2023-01-12T08:19:41.019Z,99093.47
2023-01-12T08:22:34.182Z,99103.06
2023-01-12T08:25:26.990Z,99087.59
2023-01-12T08:28:17.955Z,99086.03
2023-01-12T08:31:04.968Z,99087.97
2023-01-12T08:33:53.200Z,99097.72
2023-01-12T08:36:43.864Z,99072.78
2023-01-12T08:39:29.940Z,99108.47
2023-01-12T08:42:15.670Z,99082.44
2023-01-12T08:45:01.661Z,99058.22
2023-01-12T08:47:46.979Z,99060.84
2023-01-12T08:50:32.310Z,99061.88
2023-01-12T08:53:17.565Z,99057.69
2023-01-12T08:56:03.156Z,99057.78
2023-01-12T08:58:49.073Z,99062.13
2023-01-12T09:01:35.083Z,99079.41
2023-01-12T09:04:20.856Z,99081.91
2023-01-12T09:07:07.132Z,99094.13
2023-01-12T09:09:52.713Z,99078.31
2023-01-12T09:12:38.147Z,99075.53
2023-01-12T09:15:23.783Z,99098.44
2023-01-12T09:18:09.555Z,99114.59
2023-01-12T09:21:01.561Z,99132.56
2023-01-12T09:23:49.435Z,99161.44
2023-01-12T09:26:43.471Z,99183.38
2023-01-12T09:29:28.976Z,99187.84
2023-01-12T09:32:14.853Z,99176.72
2023-01-12T09:35:00.944Z,99187.97
2023-01-12T09:37:46.363Z,99187.16
2023-01-12T09:40:32.248Z,99192.38
2023-01-12T09:43:36.143Z,99188.03
2023-01-12T09:46:50.812Z,99163.91
2023-01-12T09:49:42.566Z,99184.72
2023-01-12T09:52:38.113Z,99170.81
2023-01-12T09:55:26.220Z,99168.97
2023-01-12T09:58:24.353Z,99173.25
2023-01-12T10:01:24.153Z,99174.94
2023-01-12T10:04:14.837Z,99179.31
2023-01-12T10:07:00.070Z,99170.66
2023-01-12T10:09:46.418Z,99172.34
2023-01-12T10:12:42.616Z,99160.09
2023-01-12T10:15:40.769Z,99120.25
2023-01-12T10:18:48.002Z,99126.13
2023-01-12T10:21:33.647Z,99134.53
2023-01-12T10:24:23.281Z,99124.81
2023-01-12T10:27:13.700Z,99110.69
2023-01-12T10:29:59.358Z,99139.81
2023-01-12T10:32:45.717Z,99126.28
2023-01-12T10:35:31.253Z,99145.25
2023-01-12T10:38:36.177Z,99152.63
2023-01-12T10:41:26.515Z,99159.63
2023-01-12T10:44:16.878Z,99155.28
2023-01-12T10:47:10.391Z,99164.72
2023-01-12T10:50:20.622Z,99143.06
2023-01-12T10:53:15.745Z,99147.22
2023-01-12T10:56:21.642Z,99147.91
2023-01-12T10:59:17.947Z,99143.44
2023-01-12T11:02:09.459Z,99166.63
2023-01-12T11:04:55.876Z,99129.97
2023-01-12T11:07:49.772Z,99129.00
2023-01-12T11:10:38.837Z,99122.91
2023-01-12T11:13:36.690Z,99121.94
2023-01-12T11:16:34.923Z,99108.72
2023-01-12T11:19:29.562Z,99110.94
2023-01-12T11:22:37.423Z,99115.78
2023-01-12T11:25:26.130Z,99125.25
2023-01-12T11:28:29.706Z,99148.19
2023-01-12T11:31:21.804Z,99149.03
2023-01-12T11:34:19.044Z,99154.00
2023-01-12T11:37:14.670Z,99167.25
2023-01-12T11:40:14.902Z,99163.06
2023-01-12T11:43:40.712Z,99159.66
2023-01-12T11:46:36.550Z,99153.59
2023-01-12T11:49:59.290Z,99144.00
2023-01-12T11:52:45.331Z,99137.00
2023-01-12T11:55:52.554Z,99136.94
2023-01-12T11:58:38.037Z,99122.16
2023-01-12T12:01:50.568Z,99102.13
2023-01-12T12:04:56.091Z,99105.41
2023-01-12T12:08:03.262Z,99076.75
2023-01-12T12:10:54.435Z,99072.31
2023-01-12T12:14:04.018Z,99054.06
2023-01-12T12:16:52.331Z,99048.75
2023-01-12T12:20:10.421Z,99041.72
2023-01-12T12:23:25.661Z,99034.69
2023-01-12T12:26:13.836Z,99044.22
2023-01-12T12:29:13.881Z,99032.09
2023-01-12T12:32:11.456Z,98997.44
2023-01-12T12:35:21.057Z,99013.03
2023-01-12T12:38:09.407Z,99010.50
2023-01-12T12:41:19.819Z,99012.19
2023-01-12T12:44:47.207Z,99013.13
2023-01-12T12:47:32.879Z,99007.88
2023-01-12T12:50:38.661Z,98991.38
2023-01-12T12:53:35.594Z,98999.91
2023-01-12T12:56:25.547Z,98986.09
2023-01-12T12:59:52.159Z,99004.50
2023-01-12T13:02:54.285Z,98997.78
2023-01-12T13:05:43.260Z,98998.72
2023-01-12T13:08:34.923Z,98980.63
2023-01-12T13:11:21.507Z,98967.00
2023-01-12T13:14:19.961Z,98987.03
2023-01-12T13:17:21.152Z,98982.72
2023-01-12T13:20:16.719Z,98993.91
2023-01-12T13:23:46.271Z,99004.25
2023-01-12T13:26:35.124Z,99015.50
2023-01-12T13:29:23.845Z,99005.19
2023-01-12T13:32:36.052Z,99008.69
2023-01-12T13:35:29.521Z,99005.31
2023-01-12T13:38:38.631Z,98992.38
2023-01-12T13:41:47.447Z,99006.09
2023-01-12T13:44:40.223Z,99006.78
2023-01-12T13:47:30.553Z,99019.56
2023-01-12T13:50:24.936Z,99021.22
2023-01-12T13:53:21.253Z,99015.16
2023-01-12T13:56:08.219Z,99026.53
2023-01-12T13:59:01.816Z,99032.91
2023-01-12T14:01:48.650Z,99034.75
2023-01-12T14:05:12.629Z,99026.16
2023-01-12T14:08:07.494Z,99023.50
2023-01-12T14:11:05.550Z,99016.41
2023-01-12T14:14:53.695Z,98997.25
2023-01-12T14:17:57.747Z,98994.50
2023-01-12T14:20:51.005Z,98988.28
2023-01-12T14:23:36.375Z,98994.19
2023-01-12T14:26:24.209Z,98983.84
2023-01-12T14:29:11.570Z,98992.59
2023-01-12T14:31:58.051Z,98970.91
2023-01-12T14:34:53.058Z,98991.66
2023-01-12T14:37:39.327Z,99048.84
2023-01-12T14:40:32.993Z,99052.66
2023-01-12T14:43:37.076Z,99052.19
2023-01-12T14:46:33.617Z,99050.16
2023-01-12T14:49:28.507Z,99085.16
2023-01-12T14:52:16.955Z,99086.16
2023-01-12T14:55:24.369Z,99090.56
2023-01-12T14:58:20.963Z,99090.63
2023-01-12T15:01:06.591Z,99088.94
2023-01-12T15:03:53.419Z,99074.34
2023-01-12T15:06:41.375Z,99077.75
2023-01-12T15:09:29.414Z,99077.59
2023-01-12T15:12:25.460Z,99064.50
2023-01-12T15:15:17.050Z,99020.38
2023-01-12T15:18:20.869Z,99025.34
2023-01-12T15:21:24.913Z,99029.53
2023-01-12T15:24:46.804Z,99030.31
2023-01-12T15:27:33.823Z,99030.34
2023-01-12T15:30:19.552Z,99024.19
2023-01-12T15:33:05.400Z,99034.44
2023-01-12T15:35:50.968Z,99024.91
2023-01-12T15:38:36.439Z,99017.06
2023-01-12T15:41:44.982Z,99042.22
2023-01-12T15:44:30.532Z,99010.13
2023-01-12T15:47:17.733Z,99019.50
2023-01-12T15:50:05.641Z,98994.47
2023-01-12T15:52:51.276Z,98993.63
2023-01-12T15:55:37.406Z,98974.66
2023-01-12T15:58:23.939Z,98996.28
2023-01-12T16:01:14.787Z,98977.34
2023-01-12T16:04:36.003Z,99005.94
2023-01-12T16:07:05.938Z,98962.69
2023-01-12T16:09:51.257Z,98952.47
2023-01-12T16:12:37.296Z,98966.34
2023-01-12T16:15:25.099Z,98967.22
2023-01-12T16:18:10.425Z,98972.38
2023-01-12T16:20:59.648Z,98950.78
2023-01-12T16:23:46.363Z,98964.66
2023-01-12T16:26:31.793Z,98953.38
2023-01-12T16:29:17.645Z,98948.19
2023-01-12T16:32:03.733Z,98963.56
2023-01-12T16:34:49.049Z,98972.22
2023-01-12T16:37:35.430Z,98955.94
2023-01-12T16:40:21.227Z,98976.84
2023-01-12T16:43:06.487Z,98986.41
2023-01-12T16:45:52.096Z,99009.03
2023-01-12T16:48:39.442Z,98965.88
2023-01-12T16:51:25.727Z,98985.66
2023-01-12T16:54:11.207Z,98996.91
2023-01-12T16:56:58.157Z,98989.03
2023-01-12T16:59:44.131Z,98993.34
2023-01-12T17:02:31.679Z,98979.53
2023-01-12T17:05:17.951Z,98979.59
2023-01-12T17:08:03.354Z,98974.34
2023-01-12T17:10:49.287Z,98987.34
2023-01-12T17:13:34.816Z,98983.88
2023-01-12T17:16:21.889Z,98990.03
2023-01-12T17:19:07.746Z,98984.94
2023-01-12T17:21:55.000Z,99003.13
2023-01-12T17:24:41.187Z,99001.53
2023-01-12T17:27:26.852Z,98989.53
2023-01-12T17:30:12.840Z,98985.28
2023-01-12T17:32:58.390Z,99002.63
2023-01-12T17:35:43.838Z,98991.50
2023-01-12T17:38:28.997Z,98986.28
2023-01-12T17:41:34.917Z,99006.09
2023-01-12T17:44:20.947Z,99050.84
2023-01-12T17:47:06.577Z,98996.44
2023-01-12T17:49:53.282Z,99015.50
2023-01-12T17:52:38.713Z,98974.13
2023-01-12T17:55:23.900Z,98993.88
2023-01-12T17:58:09.405Z,98980.16
2023-01-12T18:00:54.697Z,98985.31
2023-01-12T18:03:40.467Z,98974.88
2023-01-12T18:06:27.169Z,98974.84
2023-01-12T18:09:13.900Z,98969.63
2023-01-12T18:12:00.355Z,98984.22
2023-01-12T18:14:45.899Z,98959.13
2023-01-12T18:17:31.658Z,98970.34
2023-01-12T18:20:17.274Z,98938.44
2023-01-12T18:23:02.473Z,98975.53
2023-01-12T18:25:48.719Z,98967.78
2023-01-12T18:28:34.422Z,98957.34
2023-01-12T18:31:23.841Z,98976.31
2023-01-12T18:34:10.372Z,98968.56
2023-01-12T18:36:56.111Z,98978.16
2023-01-12T18:39:43.959Z,98955.81
2023-01-12T18:42:48.005Z,98983.50
2023-01-12T18:45:33.668Z,98952.47
2023-01-12T18:48:23.449Z,98977.44
2023-01-12T18:51:27.313Z,98967.03
2023-01-12T18:54:13.009Z,98975.63
2023-01-12T18:56:58.334Z,98976.50
2023-01-12T18:59:44.796Z,98981.75
2023-01-12T19:02:30.328Z,98966.31
2023-01-12T19:05:36.256Z,98974.91
2023-01-12T19:08:40.766Z,98961.88
2023-01-12T19:11:26.500Z,98979.91
2023-01-12T19:14:30.293Z,98969.44
2023-01-12T19:17:28.041Z,98984.91
2023-01-12T19:20:17.517Z,98971.91
2023-01-12T19:23:21.462Z,98965.00
2023-01-12T19:26:28.135Z,98952.03
2023-01-12T19:29:13.665Z,98933.91
2023-01-12T19:31:59.369Z,98958.88
2023-01-12T19:34:44.825Z,98992.53
2023-01-12T19:37:30.058Z,98936.41
2023-01-12T19:40:34.249Z,98957.09
2023-01-12T19:43:25.676Z,98923.47
2023-01-12T19:46:13.135Z,98940.69
2023-01-12T19:48:58.570Z,98942.41
2023-01-12T19:51:46.193Z,98940.63
2023-01-12T19:54:31.713Z,98927.69
2023-01-12T19:57:17.081Z,98944.94
2023-01-12T20:00:05.054Z,98939.72
2023-01-12T20:02:58.051Z,98962.13
2023-01-12T20:05:44.479Z,98957.81
2023-01-12T20:08:29.731Z,98943.91
2023-01-12T20:11:16.363Z,98973.19
2023-01-12T20:14:01.820Z,98945.56
2023-01-12T20:16:47.473Z,98956.75
2023-01-12T20:19:34.226Z,98976.63
2023-01-12T20:22:19.711Z,98981.84
2023-01-12T20:25:06.287Z,98965.41
2023-01-12T20:27:53.253Z,98973.16
2023-01-12T20:30:41.779Z,98982.72
2023-01-12T20:33:28.447Z,98981.84
2023-01-12T20:36:16.557Z,99000.81
2023-01-12T20:39:02.183Z,98999.09
2023-01-12T20:41:49.354Z,98979.25
2023-01-12T20:44:35.375Z,98995.66
2023-01-12T20:47:21.728Z,99002.50
2023-01-12T20:50:08.382Z,98988.63
2023-01-12T20:52:54.429Z,99005.81
2023-01-12T20:55:50.098Z,99010.97
2023-01-12T20:58:36.812Z,98997.13
2023-01-12T21:01:22.616Z,98997.19
2023-01-12T21:04:08.535Z,99032.59
2023-01-12T21:06:53.793Z,99003.97
2023-01-12T21:09:40.036Z,99023.06
2023-01-12T21:12:27.502Z,99038.72
2023-01-12T21:15:13.634Z,99028.47
2023-01-12T21:17:59.251Z,99032.91
2023-01-12T21:20:45.068Z,99047.66
2023-01-12T21:23:31.010Z,99047.75
2023-01-12T21:26:16.604Z,99076.25
2023-01-12T21:29:02.253Z,99089.22
2023-01-12T21:31:48.047Z,99079.75
2023-01-12T21:34:33.543Z,99075.38
2023-01-12T21:37:19.568Z,99092.59
2023-01-12T21:40:05.576Z,99093.50
2023-01-12T21:43:08.917Z,99103.88
2023-01-12T21:45:55.002Z,99104.72
2023-01-12T21:48:40.457Z,99103.88
2023-01-12T21:51:25.730Z,99112.53
2023-01-12T21:54:11.160Z,99116.00
2023-01-12T21:56:56.625Z,99123.78
2023-01-12T21:59:42.011Z,99128.09
2023-01-12T22:02:27.403Z,99131.53
2023-01-12T22:05:14.006Z,99128.88
2023-01-12T22:07:59.727Z,99122.81
2023-01-12T22:10:45.781Z,99167.69
2023-01-12T22:13:31.275Z,99131.34
2023-01-12T22:16:17.127Z,99176.22
2023-01-12T22:19:03.658Z,99179.66
2023-01-12T22:21:48.977Z,99164.09
2023-01-12T22:24:34.334Z,99175.31
2023-01-12T22:27:19.501Z,99161.47
2023-01-12T22:30:06.449Z,99177.91
2023-01-12T22:32:54.829Z,99179.59
2023-01-12T22:35:40.173Z,99184.78
2023-01-12T22:38:25.501Z,99189.94
2023-01-12T22:41:12.894Z,99187.31
2023-01-12T22:43:58.284Z,99197.63
2023-01-12T22:46:43.979Z,99205.41
2023-01-12T22:49:29.823Z,99201.91
2023-01-12T22:52:15.145Z,99172.56
2023-01-12T22:55:00.815Z,99203.63
2023-01-12T22:57:46.324Z,99206.16
2023-01-12T23:00:32.026Z,99199.22
2023-01-12T23:03:17.868Z,99214.78
2023-01-12T23:06:04.635Z,99209.56
2023-01-12T23:08:51.086Z,99239.00
2023-01-12T23:11:36.350Z,99228.72
2023-01-12T23:14:21.859Z,99236.56
2023-01-12T23:17:07.745Z,99254.72
2023-01-12T23:19:53.336Z,99264.25
2023-01-12T23:22:39.322Z,99274.66
2023-01-12T23:25:24.509Z,99264.38
2023-01-12T23:28:12.137Z,99269.56
2023-01-12T23:31:06.083Z,99266.09
2023-01-12T23:33:52.115Z,99268.66
2023-01-12T23:36:37.688Z,99265.22
2023-01-12T23:39:23.225Z,99309.22
2023-01-12T23:42:08.421Z,99308.34
2023-01-12T23:44:53.630Z,99304.03
2023-01-12T23:47:39.043Z,99316.13
2023-01-12T23:50:24.675Z,99320.44
2023-01-12T23:53:10.292Z,99323.06
2023-01-12T23:55:56.734Z,99314.44
2023-01-12T23:58:43.734Z,99329.97
